Atlanta, Michigan
Current Conditions -  °F | °C
As of 8:53 PM on Saturday 25 Oct 2014 (Local Time) from KGLR Reporting Station
Clear Clear  
Wind Chill: 47°   Ceiling: Unl
Heat Index: 49°   Visibility: 10mi
Dew Point: 36°   Wind: 5mph
Humidity: 61%   Direction: 320°NW
Pressure: 29.75"   Gusts: NA
Location:  45°N, 84.14°W
Report Text: KGLR 260053Z AUTO 32004KT 10SM CLR 09/02 A2975 RMK AO2 SLP079 T00940022
Loading
Personal Weather Stations






























Interactive Weather Map
Tropical Storm Tracking
New forecast layout! Learn more

10-Day Weather Forecast

Advertisements
Track Severe Weather on mobile